createdAt,value
2018-03-20T00:01:00.875Z,12.80
2018-03-20T00:04:04.237Z,10.67
2018-03-20T00:07:22.095Z,10.20
2018-03-20T00:10:30.384Z,10.23
2018-03-20T00:13:33.636Z,16.70
2018-03-20T00:16:42.450Z,13.60
2018-03-20T00:19:51.315Z,10.07
2018-03-20T00:22:55.642Z,11.43
2018-03-20T00:25:58.920Z,9.77
2018-03-20T00:29:02.202Z,10.20
2018-03-20T00:32:07.354Z,9.33
2018-03-20T00:35:10.580Z,9.03
2018-03-20T00:38:15.744Z,9.70
2018-03-20T00:41:24.472Z,9.13
2018-03-20T00:44:27.720Z,9.63
2018-03-20T00:47:31.024Z,10.23
2018-03-20T00:50:34.195Z,10.47
2018-03-20T00:53:37.428Z,10.50
2018-03-20T00:56:40.694Z,10.33
2018-03-20T00:59:43.867Z,10.27
2018-03-20T01:02:49.199Z,10.50
2018-03-20T01:05:52.476Z,11.00
2018-03-20T01:08:55.697Z,9.77
2018-03-20T01:11:59.874Z,10.40
2018-03-20T01:15:03.333Z,9.23
2018-03-20T01:18:06.659Z,9.87
2018-03-20T01:21:10.970Z,8.93
2018-03-20T01:24:15.112Z,10.30
2018-03-20T01:27:18.703Z,9.60
2018-03-20T01:30:30.044Z,9.77
2018-03-20T01:33:33.240Z,9.60
2018-03-20T01:36:36.433Z,9.23
2018-03-20T01:39:39.650Z,10.00
2018-03-20T01:42:42.866Z,9.53
2018-03-20T01:45:56.664Z,9.63
2018-03-20T01:49:01.840Z,10.57
2018-03-20T01:52:09.889Z,9.60
2018-03-20T01:55:13.112Z,10.07
2018-03-20T01:58:16.316Z,10.73
2018-03-20T02:01:20.987Z,9.60
2018-03-20T02:04:24.613Z,9.50
2018-03-20T02:07:28.793Z,10.00
2018-03-20T02:10:32.043Z,9.67
2018-03-20T02:13:40.905Z,9.97
2018-03-20T02:16:44.112Z,9.67
2018-03-20T02:19:49.548Z,9.87
2018-03-20T02:22:57.281Z,10.00
2018-03-20T02:26:01.438Z,10.50
2018-03-20T02:29:04.598Z,9.47
2018-03-20T02:32:11.722Z,10.27
2018-03-20T02:35:29.792Z,11.10
2018-03-20T02:38:34.248Z,10.57
2018-03-20T02:41:40.536Z,9.83
2018-03-20T02:45:04.421Z,9.97
2018-03-20T02:48:07.663Z,10.77
2018-03-20T02:51:12.841Z,9.93
2018-03-20T02:54:16.085Z,9.67
2018-03-20T02:57:19.335Z,9.43
2018-03-20T03:00:22.689Z,10.50
2018-03-20T03:03:27.061Z,9.80
2018-03-20T03:06:32.289Z,9.97
2018-03-20T03:09:35.633Z,10.60
2018-03-20T03:12:40.864Z,9.63
2018-03-20T03:15:45.130Z,10.80
2018-03-20T03:18:48.428Z,11.23
2018-03-20T03:21:52.792Z,9.53
2018-03-20T03:24:56.122Z,10.47
2018-03-20T03:27:59.396Z,9.70
2018-03-20T03:31:03.675Z,9.90
2018-03-20T03:34:08.203Z,10.87
2018-03-20T03:37:12.420Z,10.83
2018-03-20T03:40:15.760Z,10.23
2018-03-20T03:43:20.431Z,10.43
2018-03-20T03:46:24.762Z,9.67
2018-03-20T03:49:34.072Z,11.37
2018-03-20T03:52:37.500Z,10.47
2018-03-20T03:55:41.803Z,10.13
2018-03-20T03:58:49.297Z,9.47
2018-03-20T04:01:54.637Z,9.63
2018-03-20T04:04:57.875Z,10.17
2018-03-20T04:08:03.157Z,9.97
2018-03-20T04:11:07.384Z,10.57
2018-03-20T04:14:10.653Z,10.07
2018-03-20T04:17:14.000Z,10.67
2018-03-20T04:20:17.181Z,11.27
2018-03-20T04:23:20.500Z,11.97
2018-03-20T04:26:23.707Z,11.87
2018-03-20T04:29:27.108Z,11.77
2018-03-20T04:32:30.309Z,12.23
2018-03-20T04:35:33.662Z,12.37
2018-03-20T04:38:36.864Z,11.97
2018-03-20T04:41:40.232Z,10.87
2018-03-20T04:44:43.560Z,11.30
2018-03-20T04:47:48.415Z,11.67
2018-03-20T04:50:55.165Z,11.63
2018-03-20T04:54:00.624Z,11.53
2018-03-20T04:57:03.815Z,11.67
2018-03-20T05:00:08.166Z,11.00
2018-03-20T05:03:11.509Z,10.87
2018-03-20T05:06:14.801Z,11.73
2018-03-20T05:09:19.302Z,11.90
2018-03-20T05:12:30.465Z,11.07
2018-03-20T05:15:33.676Z,11.23
2018-03-20T05:18:38.409Z,10.87
2018-03-20T05:21:45.123Z,11.87
2018-03-20T05:24:53.936Z,11.50
2018-03-20T05:27:57.131Z,12.43
2018-03-20T05:31:00.629Z,10.43
2018-03-20T05:34:04.886Z,11.40
2018-03-20T05:37:08.167Z,11.93
2018-03-20T05:40:11.689Z,10.63
2018-03-20T05:43:16.184Z,11.77
2018-03-20T05:46:19.453Z,11.30
2018-03-20T05:49:24.547Z,11.67
2018-03-20T05:52:27.857Z,12.03
2018-03-20T05:55:32.281Z,12.07
2018-03-20T05:58:37.633Z,11.93
2018-03-20T06:01:41.921Z,11.60
2018-03-20T06:04:45.293Z,11.50
2018-03-20T06:07:48.547Z,11.83
2018-03-20T06:10:55.000Z,11.17
2018-03-20T06:13:58.613Z,11.17
2018-03-20T06:17:05.130Z,11.90
2018-03-20T06:20:08.493Z,12.20
2018-03-20T06:23:11.844Z,11.67
2018-03-20T06:26:16.223Z,12.77
2018-03-20T06:29:19.486Z,11.90
2018-03-20T06:32:22.748Z,13.37
2018-03-20T06:35:25.998Z,13.23
2018-03-20T06:38:29.416Z,12.37
2018-03-20T06:41:32.684Z,11.03
2018-03-20T06:44:36.917Z,11.40
2018-03-20T06:47:40.091Z,12.40
2018-03-20T06:50:44.268Z,11.93
2018-03-20T06:53:47.538Z,12.97
2018-03-20T06:56:50.720Z,12.23
2018-03-20T06:59:53.917Z,10.93
2018-03-20T07:02:59.081Z,12.10
2018-03-20T07:06:02.376Z,11.63
2018-03-20T07:09:06.647Z,11.60
2018-03-20T07:12:09.841Z,12.33
2018-03-20T07:15:13.030Z,11.67
2018-03-20T07:18:16.255Z,11.53
2018-03-20T07:21:19.447Z,11.67
2018-03-20T07:24:24.715Z,11.97
2018-03-20T07:27:28.433Z,11.73
2018-03-20T07:30:31.775Z,11.43
2018-03-20T07:33:35.036Z,11.87
2018-03-20T07:36:40.273Z,11.20
2018-03-20T07:39:43.554Z,11.73
2018-03-20T07:42:46.832Z,11.30
2018-03-20T07:45:52.050Z,11.70
2018-03-20T07:48:56.173Z,11.43
2018-03-20T07:52:00.078Z,11.37
2018-03-20T07:55:03.261Z,11.70
2018-03-20T07:58:09.511Z,11.60
2018-03-20T08:01:13.705Z,11.50
2018-03-20T08:04:16.821Z,12.20
2018-03-20T08:07:20.971Z,11.47
2018-03-20T08:10:25.104Z,11.73
2018-03-20T08:13:30.209Z,11.83
2018-03-20T08:16:35.374Z,11.47
2018-03-20T08:19:39.524Z,10.90
2018-03-20T08:22:44.700Z,10.70
2018-03-20T08:25:47.903Z,11.00
2018-03-20T08:28:51.067Z,11.50
2018-03-20T08:31:55.201Z,10.80
2018-03-20T08:34:58.915Z,10.77
2018-03-20T08:38:02.255Z,10.77
2018-03-20T08:41:06.425Z,11.23
2018-03-20T08:44:09.632Z,9.60
2018-03-20T08:47:12.766Z,9.67
2018-03-20T08:50:15.901Z,9.70
2018-03-20T08:53:19.092Z,10.30
2018-03-20T08:56:22.248Z,10.37
2018-03-20T08:59:26.446Z,9.67
2018-03-20T09:02:30.640Z,8.97
2018-03-20T09:05:34.804Z,8.60
2018-03-20T09:08:38.000Z,8.60
2018-03-20T09:11:41.295Z,9.23
2018-03-20T09:14:46.249Z,9.43
2018-03-20T09:17:49.428Z,8.90
2018-03-20T09:20:54.615Z,8.67
2018-03-20T09:23:59.771Z,7.83
2018-03-20T09:27:03.932Z,9.37
2018-03-20T09:30:07.043Z,9.27
2018-03-20T09:33:10.177Z,9.77
2018-03-20T09:36:13.302Z,7.33
2018-03-20T09:39:16.460Z,6.50
2018-03-20T09:42:20.586Z,7.00
2018-03-20T09:45:23.691Z,6.57
2018-03-20T09:48:26.816Z,6.73
2018-03-20T09:51:29.957Z,6.57
2018-03-20T09:54:34.112Z,7.00
2018-03-20T09:57:37.216Z,6.03
2018-03-20T10:00:45.074Z,6.50
2018-03-20T10:03:49.198Z,6.70
2018-03-20T10:06:54.400Z,6.30
2018-03-20T10:09:59.549Z,7.80
2018-03-20T10:13:02.660Z,7.70
2018-03-20T10:16:05.837Z,7.93
2018-03-20T10:19:10.959Z,8.30
2018-03-20T10:22:14.188Z,8.57
2018-03-20T10:25:17.311Z,7.40
2018-03-20T10:28:25.781Z,7.50
2018-03-20T10:31:34.916Z,7.20
2018-03-20T10:34:38.060Z,6.70
2018-03-20T10:37:42.203Z,6.00
2018-03-20T10:40:45.341Z,6.23
2018-03-20T10:43:49.524Z,7.30
2018-03-20T10:46:58.592Z,6.33
2018-03-20T10:50:25.505Z,6.17
2018-03-20T10:53:28.665Z,5.80
2018-03-20T10:56:32.824Z,6.03
2018-03-20T10:59:36.996Z,6.60
2018-03-20T11:02:47.544Z,7.40
2018-03-20T11:05:50.720Z,5.37
2018-03-20T11:09:01.955Z,6.30
2018-03-20T11:12:05.161Z,6.27
2018-03-20T11:15:09.524Z,6.83
2018-03-20T11:18:12.880Z,6.67
2018-03-20T11:21:17.081Z,6.70
2018-03-20T11:24:20.412Z,7.53
2018-03-20T11:27:25.608Z,7.43
2018-03-20T11:30:29.220Z,8.70
2018-03-20T11:33:32.352Z,8.43
2018-03-20T11:36:36.618Z,10.97
2018-03-20T11:39:39.825Z,8.60
2018-03-20T11:42:43.983Z,9.03
2018-03-20T11:45:47.096Z,8.47
2018-03-20T11:48:51.256Z,8.60
2018-03-20T11:51:56.420Z,8.30
2018-03-20T11:55:00.643Z,9.03
2018-03-20T11:58:04.731Z,8.53
2018-03-20T12:01:14.124Z,10.87
2018-03-20T12:04:17.432Z,9.47
2018-03-20T12:07:21.572Z,8.77
2018-03-20T12:10:26.766Z,9.03
2018-03-20T12:13:29.960Z,8.90
2018-03-20T12:16:33.205Z,8.13
2018-03-20T12:19:39.621Z,8.00
2018-03-20T12:22:43.859Z,8.80
2018-03-20T12:25:47.992Z,9.10
2018-03-20T12:28:51.125Z,8.37
2018-03-20T12:31:56.423Z,8.27
2018-03-20T12:34:59.653Z,8.10
2018-03-20T12:38:02.861Z,8.43
2018-03-20T12:41:07.017Z,7.83
2018-03-20T12:44:16.652Z,8.20
2018-03-20T12:47:19.858Z,8.67
2018-03-20T12:50:23.037Z,7.40
2018-03-20T12:53:26.654Z,7.37
2018-03-20T12:56:29.844Z,7.07
2018-03-20T12:59:33.632Z,7.53
2018-03-20T13:02:36.761Z,7.70
2018-03-20T13:05:39.899Z,8.30
2018-03-20T13:08:44.060Z,7.50
2018-03-20T13:11:48.244Z,7.80
2018-03-20T13:14:52.460Z,8.47
2018-03-20T13:17:55.652Z,8.00
2018-03-20T13:20:59.917Z,7.33
2018-03-20T13:24:03.492Z,7.33
2018-03-20T13:27:06.725Z,7.33
2018-03-20T13:30:11.053Z,7.40
2018-03-20T13:33:19.863Z,7.67
2018-03-20T13:36:25.189Z,8.67
2018-03-20T13:39:28.544Z,8.60
2018-03-20T13:42:32.026Z,8.63
2018-03-20T13:45:35.313Z,8.53
2018-03-20T13:48:39.527Z,7.90
2018-03-20T13:51:42.797Z,7.80
2018-03-20T13:54:46.048Z,8.47
2018-03-20T13:57:53.557Z,9.37
2018-03-20T14:00:56.848Z,7.97
2018-03-20T14:04:00.043Z,8.77
2018-03-20T14:07:03.276Z,9.17
2018-03-20T14:10:07.484Z,8.93
2018-03-20T14:13:11.728Z,9.53
2018-03-20T14:16:18.615Z,8.83
2018-03-20T14:19:21.894Z,8.70
2018-03-20T14:22:25.072Z,10.50
2018-03-20T14:25:28.284Z,11.97
2018-03-20T14:28:31.480Z,8.90
2018-03-20T14:31:41.901Z,9.13
2018-03-20T14:34:45.368Z,9.37
2018-03-20T14:37:48.630Z,8.90
2018-03-20T14:40:51.873Z,9.60
2018-03-20T14:43:56.132Z,9.53
2018-03-20T14:47:01.213Z,10.30
2018-03-20T14:50:05.640Z,10.00
2018-03-20T14:53:08.953Z,10.43
2018-03-20T14:56:12.231Z,10.17
2018-03-20T14:59:22.969Z,9.93
2018-03-20T15:02:27.177Z,11.13
2018-03-20T15:05:30.321Z,10.50
2018-03-20T15:08:33.516Z,11.73
2018-03-20T15:11:36.657Z,12.00
2018-03-20T15:14:39.863Z,11.60
2018-03-20T15:17:46.272Z,11.10
2018-03-20T15:20:50.438Z,11.80
2018-03-20T15:23:54.660Z,11.57
2018-03-20T15:26:57.820Z,12.20
2018-03-20T15:30:01.064Z,12.07
2018-03-20T15:33:09.905Z,11.37
2018-03-20T15:36:13.386Z,11.73
2018-03-20T15:39:22.016Z,12.70
2018-03-20T15:42:25.232Z,11.77
2018-03-20T15:45:28.368Z,12.53
2018-03-20T15:48:33.516Z,12.33
2018-03-20T15:51:36.732Z,13.17
2018-03-20T15:54:40.605Z,13.53
2018-03-20T15:57:43.792Z,12.67
2018-03-20T16:00:47.957Z,13.73
2018-03-20T16:03:52.328Z,13.23
2018-03-20T16:06:57.485Z,12.97
2018-03-20T16:10:00.636Z,13.70
2018-03-20T16:13:04.580Z,14.93
2018-03-20T16:16:07.768Z,13.47
2018-03-20T16:19:11.933Z,13.83
2018-03-20T16:22:15.061Z,15.47
2018-03-20T16:25:23.710Z,13.00
2018-03-20T16:28:28.056Z,14.33
2018-03-20T16:31:33.498Z,14.87
2018-03-20T16:34:36.774Z,14.50
2018-03-20T16:37:41.092Z,14.83
2018-03-20T16:40:44.297Z,14.17
2018-03-20T16:43:47.631Z,14.73
2018-03-20T16:46:52.901Z,14.67
2018-03-20T16:49:56.193Z,14.37
2018-03-20T16:52:59.969Z,14.63
2018-03-20T16:56:03.273Z,13.37
2018-03-20T16:59:06.629Z,14.37
2018-03-20T17:02:09.853Z,14.17
2018-03-20T17:05:13.030Z,14.17
2018-03-20T17:08:16.346Z,13.30
2018-03-20T17:11:19.542Z,14.13
2018-03-20T17:14:22.794Z,13.97
2018-03-20T17:17:25.994Z,13.63
2018-03-20T17:20:29.287Z,13.20
2018-03-20T17:23:32.690Z,14.40
2018-03-20T17:26:35.979Z,13.27
2018-03-20T17:29:39.294Z,14.20
2018-03-20T17:32:42.474Z,12.73
2018-03-20T17:35:45.710Z,11.93
2018-03-20T17:38:49.293Z,11.30
2018-03-20T17:41:52.573Z,10.60
2018-03-20T17:44:55.839Z,11.10
2018-03-20T17:47:59.202Z,10.13
2018-03-20T17:51:02.459Z,9.20
2018-03-20T17:54:05.711Z,9.33
2018-03-20T17:57:08.962Z,8.50
2018-03-20T18:00:12.201Z,8.17
2018-03-20T18:03:15.489Z,6.73
2018-03-20T18:06:18.701Z,6.87
2018-03-20T18:09:22.010Z,6.53
2018-03-20T18:12:25.298Z,6.80
2018-03-20T18:15:28.611Z,5.57
2018-03-20T18:18:31.925Z,5.37
2018-03-20T18:21:35.257Z,5.80
2018-03-20T18:24:38.628Z,5.00
2018-03-20T18:27:41.889Z,5.30
2018-03-20T18:30:45.116Z,5.33
2018-03-20T18:33:48.328Z,4.70
2018-03-20T18:36:51.750Z,4.80
2018-03-20T18:39:55.077Z,4.60
2018-03-20T18:42:58.342Z,4.53
2018-03-20T18:46:01.581Z,4.07
2018-03-20T18:49:04.998Z,4.10
2018-03-20T18:52:08.399Z,3.47
2018-03-20T18:55:11.683Z,3.90
2018-03-20T18:58:15.742Z,4.00
2018-03-20T19:01:19.007Z,3.37
2018-03-20T19:04:22.459Z,4.27
2018-03-20T19:07:25.630Z,3.90
2018-03-20T19:10:28.918Z,3.80
2018-03-20T19:13:32.198Z,3.40
2018-03-20T19:16:35.501Z,3.87
2018-03-20T19:19:38.730Z,4.37
2018-03-20T19:22:41.922Z,3.47
2018-03-20T19:25:45.166Z,3.40
2018-03-20T19:28:48.463Z,3.50
2018-03-20T19:31:51.694Z,3.13
2018-03-20T19:34:54.817Z,4.50
2018-03-20T19:37:58.001Z,3.70
2018-03-20T19:41:01.353Z,3.67
2018-03-20T19:44:04.482Z,6.03
2018-03-20T19:47:07.735Z,5.47
2018-03-20T19:50:10.970Z,6.10
2018-03-20T19:53:14.229Z,4.20
2018-03-20T19:56:17.541Z,3.33
2018-03-20T19:59:20.834Z,3.27
2018-03-20T20:02:24.015Z,3.40
2018-03-20T20:05:27.178Z,2.77
2018-03-20T20:08:30.337Z,3.80
2018-03-20T20:11:33.534Z,3.13
2018-03-20T20:14:36.717Z,5.10
2018-03-20T20:17:39.890Z,4.33
2018-03-20T20:20:43.111Z,4.30
2018-03-20T20:23:46.284Z,3.67
2018-03-20T20:26:49.586Z,4.57
2018-03-20T20:29:52.909Z,4.93
2018-03-20T20:32:56.115Z,4.47
2018-03-20T20:35:59.360Z,4.57
2018-03-20T20:39:02.665Z,9.90
2018-03-20T20:42:06.021Z,11.90
2018-03-20T20:45:09.271Z,8.00
2018-03-20T20:48:12.573Z,4.13
2018-03-20T20:51:15.874Z,4.43
2018-03-20T20:54:19.107Z,3.87
2018-03-20T20:57:22.770Z,3.93
2018-03-20T21:00:26.078Z,4.23
2018-03-20T21:03:29.308Z,9.00
2018-03-20T21:06:32.492Z,6.97
2018-03-20T21:09:35.736Z,5.37
2018-03-20T21:12:39.084Z,4.80
2018-03-20T21:15:42.334Z,5.47
2018-03-20T21:18:45.643Z,5.37
2018-03-20T21:21:48.975Z,5.67
2018-03-20T21:24:52.145Z,5.47
2018-03-20T21:27:55.315Z,6.37
2018-03-20T21:30:58.442Z,6.63
2018-03-20T21:34:01.878Z,7.47
2018-03-20T21:37:06.220Z,7.90
2018-03-20T21:40:09.562Z,7.00
2018-03-20T21:43:13.649Z,7.50
2018-03-20T21:46:16.929Z,7.10
2018-03-20T21:49:20.421Z,6.77
2018-03-20T21:52:30.286Z,7.40
2018-03-20T21:55:33.637Z,7.30
2018-03-20T21:58:39.991Z,10.13
2018-03-20T22:01:44.824Z,9.67
2018-03-20T22:04:48.148Z,8.57
2018-03-20T22:07:51.473Z,8.57
2018-03-20T22:10:55.356Z,5.30
2018-03-20T22:13:58.779Z,5.20
2018-03-20T22:17:05.445Z,5.47
2018-03-20T22:20:08.809Z,5.73
2018-03-20T22:23:16.816Z,5.17
2018-03-20T22:26:20.130Z,4.90
2018-03-20T22:29:23.408Z,6.60
2018-03-20T22:32:26.600Z,6.63
2018-03-20T22:35:30.125Z,6.27
2018-03-20T22:38:39.052Z,6.30
2018-03-20T22:41:42.334Z,8.40
2018-03-20T22:44:59.255Z,7.40
2018-03-20T22:48:02.530Z,7.77
2018-03-20T22:51:06.805Z,6.60
2018-03-20T22:54:11.271Z,7.70
2018-03-20T22:57:14.549Z,6.03
2018-03-20T23:00:27.677Z,7.87
2018-03-20T23:03:31.939Z,6.93
2018-03-20T23:06:35.232Z,7.57
2018-03-20T23:09:38.517Z,7.03
2018-03-20T23:12:45.989Z,7.20
2018-03-20T23:15:49.206Z,5.67
2018-03-20T23:18:53.542Z,5.83
2018-03-20T23:22:08.138Z,6.20
2018-03-20T23:25:13.359Z,6.17
2018-03-20T23:28:16.608Z,6.83
2018-03-20T23:31:19.852Z,7.07
2018-03-20T23:34:23.416Z,6.33
2018-03-20T23:37:26.602Z,7.57
2018-03-20T23:40:30.866Z,6.30
2018-03-20T23:43:34.097Z,5.73
2018-03-20T23:46:37.366Z,5.40
2018-03-20T23:49:42.320Z,6.07
2018-03-20T23:52:47.224Z,5.90
2018-03-20T23:55:51.532Z,5.40
2018-03-20T23:58:54.801Z,6.00
